Time;durP1;ratioP1;P1;durP2;ratioP2;P2;SDS_P1;SDS_P2;PMS_P1;PMS_P2;Temp;Humidity;BMP_temperature;BMP_pressure;BME280_temperature;BME280_humidity;BME280_pressure;Samples;Min_cycle;Max_cycle;Signal;HPM_P1;HPM_P2
2023/09/08 00:00:23;;;;;;;0.00;0.00;;;;;;;22.56;100.00;101685.03;10417685;28;20148;-73
2023/09/08 00:05:25;;;;;;;0.00;0.00;;;;;;;22.64;100.00;101678.78;10403706;28;20037;-73
2023/09/08 00:10:26;;;;;;;0.20;0.17;;;;;;;22.70;100.00;101672.59;10412801;28;20045;-74
2023/09/08 00:15:28;;;;;;;0.13;0.00;;;;;;;22.38;100.00;101671.19;10400800;28;20818;-73
2023/09/08 00:20:30;;;;;;;0.03;0.03;;;;;;;22.31;100.00;101683.53;10367843;28;20493;-74
2023/09/08 00:25:32;;;;;;;0.00;0.00;;;;;;;22.05;100.00;101682.91;10414613;28;20375;-74
2023/09/08 00:30:33;;;;;;;0.05;0.05;;;;;;;22.24;100.00;101686.22;10402526;28;20088;-74
2023/09/08 00:35:35;;;;;;;0.20;0.10;;;;;;;22.05;100.00;101682.91;10381919;28;20100;-74
2023/09/08 00:40:37;;;;;;;0.55;0.10;;;;;;;22.02;100.00;101678.56;10420864;28;20048;-74
2023/09/08 00:45:42;;;;;;;0.17;0.15;;;;;;;22.03;100.00;101669.81;10426066;28;20489;-74
2023/09/08 00:50:44;;;;;;;0.00;0.00;;;;;;;22.12;100.00;101679.34;10418088;28;20056;-73
2023/09/08 00:55:47;;;;;;;0.00;0.00;;;;;;;21.93;100.00;101671.66;10400403;28;20612;-73
2023/09/08 01:00:49;;;;;;;0.20;0.20;;;;;;;21.60;100.00;101683.31;10408239;28;20527;-74
2023/09/08 01:05:51;;;;;;;0.03;0.03;;;;;;;21.47;100.00;101675.50;10394297;28;20128;-74
2023/09/08 01:10:53;;;;;;;0.75;0.50;;;;;;;21.05;100.00;101682.75;10421855;28;20049;-74
2023/09/08 01:15:56;;;;;;;0.10;0.10;;;;;;;21.07;100.00;101675.75;10381673;28;20096;-74
2023/09/08 01:21:31;;;;;;;0.32;0.10;;;;;;;20.87;100.00;101675.84;10398223;28;20555;-74
2023/09/08 01:26:40;;;;;;;0.00;0.00;;;;;;;21.22;100.00;101669.56;10423885;28;20044;-73
2023/09/08 01:31:42;;;;;;;0.10;0.00;;;;;;;20.95;100.00;101668.81;10403884;28;20049;-72
2023/09/08 01:36:45;;;;;;;0.20;0.00;;;;;;;21.16;100.00;101670.47;10409122;28;20049;-75
2023/09/08 01:41:47;;;;;;;0.25;0.25;;;;;;;21.28;100.00;101664.28;10412140;28;20053;-74
2023/09/08 01:46:51;;;;;;;1.10;0.10;;;;;;;21.58;100.00;101661.47;10413205;28;20052;-73
2023/09/08 01:51:53;;;;;;;0.22;0.20;;;;;;;20.97;100.00;101664.47;10399496;28;20554;-74
2023/09/08 01:56:54;;;;;;;0.20;0.13;;;;;;;21.03;100.00;101658.31;10414922;28;20053;-73
2023/09/08 02:01:56;;;;;;;0.22;0.00;;;;;;;20.94;100.00;101658.38;10407376;28;20054;-74
2023/09/08 02:06:58;;;;;;;0.13;0.10;;;;;;;20.67;100.00;101650.59;10396480;28;20103;-74
2023/09/08 02:12:00;;;;;;;0.00;0.00;;;;;;;20.92;100.00;101648.75;10418896;28;20107;-73
2023/09/08 02:17:03;;;;;;;0.00;0.00;;;;;;;20.99;100.00;101652.22;10403104;28;20492;-74
2023/09/08 02:22:05;;;;;;;1.75;0.20;;;;;;;20.96;100.00;101651.38;10408285;28;20492;-73
2023/09/08 02:27:06;;;;;;;0.00;0.00;;;;;;;20.76;100.00;101654.94;10421872;28;20099;-74
2023/09/08 02:32:09;;;;;;;0.00;0.00;;;;;;;21.01;100.00;101644.34;10404071;28;20037;-73
2023/09/08 02:37:11;;;;;;;0.00;0.00;;;;;;;20.49;100.00;101646.31;10398627;28;20407;-73
2023/09/08 02:42:13;;;;;;;0.10;0.10;;;;;;;20.68;100.00;101646.22;10379864;28;20141;-74
2023/09/08 02:47:15;;;;;;;0.00;0.00;;;;;;;20.67;100.00;101649.72;10409476;28;20100;-74
2023/09/08 02:52:19;;;;;;;0.10;0.00;;;;;;;21.00;100.00;101640.00;10412902;28;20057;-74
2023/09/08 02:57:21;;;;;;;0.28;0.10;;;;;;;20.68;100.00;101651.47;10418394;28;20052;-74
2023/09/08 03:02:25;;;;;;;0.00;0.00;;;;;;;20.78;100.00;101653.19;10409023;28;20045;-74
2023/09/08 03:07:27;;;;;;;0.10;0.10;;;;;;;21.05;100.00;101648.69;10382179;28;20057;-74
2023/09/08 03:12:30;;;;;;;0.10;0.10;;;;;;;20.92;100.00;101651.38;10402331;28;20044;-74
2023/09/08 03:17:31;;;;;;;0.40;0.22;;;;;;;20.94;100.00;101653.13;10400765;28;20073;-73
2023/09/08 03:22:33;;;;;;;0.08;0.08;;;;;;;20.65;100.00;101654.09;10381176;28;20099;-75
2023/09/08 03:27:35;;;;;;;0.00;0.00;;;;;;;21.07;100.00;101649.56;10400029;28;20050;-74
2023/09/08 03:32:38;;;;;;;0.30;0.22;;;;;;;20.16;100.00;101657.75;10408565;28;20056;-74
2023/09/08 03:37:40;;;;;;;0.10;0.00;;;;;;;20.51;100.00;101649.81;10412640;28;20052;-75
2023/09/08 03:42:43;;;;;;;0.00;0.00;;;;;;;20.71;100.00;101646.22;10408217;28;20041;-73
2023/09/08 03:47:44;;;;;;;0.35;0.17;;;;;;;20.48;100.00;101639.34;10419302;28;20084;-75
2023/09/08 03:52:46;;;;;;;0.13;0.10;;;;;;;20.58;100.00;101645.41;10399772;28;20076;-75
2023/09/08 03:57:48;;;;;;;0.55;0.28;;;;;;;20.24;100.00;101645.53;10386420;28;20077;-76
2023/09/08 04:02:51;;;;;;;0.00;0.00;;;;;;;20.45;100.00;101644.56;10398543;28;20139;-76
2023/09/08 04:07:52;;;;;;;0.00;0.00;;;;;;;20.27;100.00;101651.63;10424033;28;20053;-76
2023/09/08 04:12:54;;;;;;;0.40;0.22;;;;;;;20.43;100.00;101652.44;10414784;28;20045;-76
2023/09/08 04:17:57;;;;;;;0.05;0.05;;;;;;;20.36;100.00;101653.31;10398962;28;20050;-75
2023/09/08 04:22:59;;;;;;;0.00;0.00;;;;;;;19.96;100.00;101651.66;10406138;28;20116;-76
2023/09/08 04:28:02;;;;;;;0.15;0.05;;;;;;;19.54;100.00;101647.28;10397090;28;20107;-75
2023/09/08 04:33:04;;;;;;;0.40;0.22;;;;;;;20.11;100.00;101644.66;10430133;28;20041;-75
2023/09/08 04:38:06;;;;;;;2.75;0.30;;;;;;;19.92;100.00;101649.91;10403204;28;20095;-75
2023/09/08 04:43:08;;;;;;;0.00;0.00;;;;;;;20.05;100.00;101647.31;10404160;28;20045;-76
2023/09/08 04:48:11;;;;;;;0.00;0.00;;;;;;;19.93;100.00;101650.81;10382305;28;20512;-76
2023/09/08 04:53:14;;;;;;;0.03;0.03;;;;;;;19.24;100.00;101636.81;10418025;28;20065;-75
2023/09/08 04:58:16;;;;;;;0.30;0.30;;;;;;;19.92;100.00;101638.59;10373435;28;20402;-75
2023/09/08 05:03:18;;;;;;;0.30;0.30;;;;;;;20.41;100.00;101653.31;10404246;28;20053;-75
2023/09/08 05:08:20;;;;;;;0.05;0.05;;;;;;;20.02;100.00;101649.91;10404590;28;20048;-74
2023/09/08 05:13:26;;;;;;;0.98;0.43;;;;;;;19.70;100.00;101649.03;10393863;28;20044;-75
2023/09/08 05:18:33;;;;;;;0.73;0.40;;;;;;;19.80;100.00;101660.34;10392242;28;20045;-75
2023/09/08 05:23:35;;;;;;;0.08;0.08;;;;;;;19.88;100.00;101658.66;10410434;28;20136;-75
2023/09/08 05:28:37;;;;;;;0.15;0.10;;;;;;;20.11;100.00;101671.69;10416845;28;20049;-75
2023/09/08 05:33:41;;;;;;;0.30;0.20;;;;;;;20.20;100.00;101665.59;10409240;28;20559;-75
2023/09/08 05:38:43;;;;;;;0.10;0.10;;;;;;;19.94;100.00;101656.03;10390176;28;20160;-75
2023/09/08 05:43:45;;;;;;;0.50;0.28;;;;;;;20.32;100.00;101648.09;10384843;28;20038;-75
2023/09/08 05:48:47;;;;;;;0.60;0.38;;;;;;;20.99;100.00;101653.97;10419882;28;20046;-74
2023/09/08 05:53:49;;;;;;;0.38;0.38;;;;;;;21.21;100.00;101647.72;10398639;28;20053;-75
2023/09/08 05:58:51;;;;;;;0.82;0.45;;;;;;;21.51;100.00;101656.25;10395894;28;20080;-74
2023/09/08 06:03:54;;;;;;;1.00;0.70;;;;;;;21.81;100.00;101654.28;10394432;28;20042;-76
2023/09/08 06:08:57;;;;;;;0.80;0.63;;;;;;;22.47;100.00;101659.75;10408151;28;20412;-75
2023/09/08 06:14:00;;;;;;;1.42;0.90;;;;;;;22.81;100.00;101649.72;10403385;28;20510;-75
2023/09/08 06:19:07;;;;;;;2.63;0.52;;;;;;;22.89;100.00;101648.72;10410920;28;20050;-75
2023/09/08 06:24:09;;;;;;;0.40;0.40;;;;;;;22.78;100.00;101654.13;10401415;28;20046;-75
2023/09/08 06:29:11;;;;;;;0.88;0.68;;;;;;;23.66;100.00;101651.97;10407508;28;20065;-76
2023/09/08 06:34:13;;;;;;;0.73;0.57;;;;;;;23.96;100.00;101660.25;10386184;28;20045;-76
2023/09/08 06:39:15;;;;;;;2.00;0.57;;;;;;;23.93;100.00;101661.19;10405452;28;20053;-75
2023/09/08 06:44:17;;;;;;;0.63;0.52;;;;;;;24.08;100.00;101668.81;10395843;28;20048;-76
2023/09/08 06:49:20;;;;;;;1.17;0.70;;;;;;;24.89;100.00;101664.56;10395608;28;20049;-75
2023/09/08 06:54:22;;;;;;;1.15;0.77;;;;;;;25.94;100.00;101658.53;10396843;28;20041;-76
2023/09/08 06:59:23;;;;;;;0.85;0.75;;;;;;;25.83;100.00;101650.91;10399688;28;20052;-76
2023/09/08 07:04:25;;;;;;;2.90;0.90;;;;;;;27.69;100.00;101653.34;10412467;28;20051;-76
2023/09/08 07:09:28;;;;;;;0.35;0.30;;;;;;;25.89;100.00;101656.03;10416124;28;20045;-76
2023/09/08 07:14:31;;;;;;;0.77;0.50;;;;;;;27.77;100.00;101653.97;10413310;28;20500;-76
2023/09/08 07:19:33;;;;;;;0.32;0.32;;;;;;;29.10;100.00;101654.38;10413392;28;20048;-77
2023/09/08 07:24:35;;;;;;;0.75;0.70;;;;;;;28.29;100.00;101661.88;10414346;28;20029;-76
2023/09/08 07:29:37;;;;;;;0.73;0.50;;;;;;;29.18;100.00;101662.03;10383274;28;20084;-76
2023/09/08 07:34:38;;;;;;;0.47;0.32;;;;;;;29.13;100.00;101667.53;10403125;28;20037;-76
2023/09/08 07:39:41;;;;;;;2.03;0.77;;;;;;;28.72;100.00;101679.75;10386315;28;20061;-76
2023/09/08 07:44:43;;;;;;;0.65;0.55;;;;;;;27.98;100.00;101683.25;10402744;28;20484;-76
2023/09/08 07:49:49;;;;;;;0.55;0.38;;;;;;;29.12;100.00;101676.41;10417241;28;20045;-76
2023/09/08 07:54:50;;;;;;;0.88;0.52;;;;;;;29.59;100.00;101677.19;10390825;28;20049;-75
2023/09/08 07:59:52;;;;;;;1.38;0.57;;;;;;;30.22;100.00;101668.28;10412124;28;20449;-73
2023/09/08 08:04:54;;;;;;;0.32;0.32;;;;;;;29.33;100.00;101672.97;10402316;28;20389;-76
2023/09/08 08:09:55;;;;;;;0.57;0.50;;;;;;;29.81;100.00;101666.50;10408050;28;20594;-76
2023/09/08 08:14:58;;;;;;;0.43;0.40;;;;;;;30.03;100.00;101670.91;10381044;28;20041;-75
2023/09/08 08:20:06;;;;;;;0.80;0.80;;;;;;;30.25;100.00;101672.59;10355555;28;20056;-76
2023/09/08 08:25:08;;;;;;;0.90;0.50;;;;;;;30.73;100.00;101671.31;10388204;28;20048;-76
2023/09/08 08:30:13;;;;;;;1.17;0.63;;;;;;;30.72;100.00;101672.25;10385140;28;20535;-76
2023/09/08 08:35:15;;;;;;;1.00;0.63;;;;;;;31.77;100.00;101677.81;10412522;28;20047;-75
2023/09/08 08:40:16;;;;;;;3.03;0.60;;;;;;;31.57;100.00;101673.47;10392944;28;20055;-76
2023/09/08 08:45:20;;;;;;;1.05;0.85;;;;;;;30.90;100.00;101678.50;10393442;28;20038;-76
2023/09/08 08:50:24;;;;;;;0.90;0.50;;;;;;;31.31;100.00;101678.28;10407423;28;20140;-76
2023/09/08 08:55:30;;;;;;;0.40;0.35;;;;;;;31.33;100.00;101684.41;10394287;28;20103;-76
2023/09/08 09:00:38;;;;;;;0.20;0.20;;;;;;;31.72;100.00;101682.53;10406320;28;20389;-76
2023/09/08 09:05:41;;;;;;;1.08;0.82;;;;;;;31.61;100.00;101682.16;10406997;28;20153;-76
2023/09/08 09:11:03;;;;;;;5.00;0.43;;;;;;;31.93;100.00;101680.53;10400786;28;20048;-76
2023/09/08 09:16:07;;;;;;;0.68;0.50;;;;;;;31.49;100.00;101670.31;10379296;28;20129;-77
2023/09/08 09:21:09;;;;;;;0.52;0.30;;;;;;;32.17;100.00;101672.16;10383873;28;20386;-77
2023/09/08 09:26:23;;;;;;;3.53;0.88;;;;;;;31.82;100.00;101676.69;10374865;28;20053;-76
2023/09/08 09:31:25;;;;;;;0.32;0.28;;;;;;;32.88;100.00;101673.66;10419381;28;20409;-77
2023/09/08 09:36:27;;;;;;;0.28;0.28;;;;;;;32.48;100.00;101683.00;10399809;28;20496;-77
2023/09/08 09:41:31;;;;;;;0.40;0.30;;;;;;;32.39;100.00;101676.38;10395026;28;20041;-76
2023/09/08 09:46:33;;;;;;;0.57;0.40;;;;;;;33.66;100.00;101670.06;10397851;28;20519;-75
2023/09/08 09:51:40;;;;;;;0.65;0.40;;;;;;;32.71;100.00;101677.25;10406429;28;20469;-75
2023/09/08 09:56:42;;;;;;;0.35;0.20;;;;;;;32.05;100.00;101670.16;10398878;28;20048;-75
2023/09/08 10:01:47;;;;;;;0.40;0.40;;;;;;;34.19;100.00;101661.56;10383536;28;20041;-75
2023/09/08 10:06:49;;;;;;;0.60;0.17;;;;;;;33.91;100.00;101667.78;10402171;28;20041;-75
2023/09/08 10:11:55;;;;;;;0.80;0.32;;;;;;;33.75;100.00;101667.81;10409837;28;20083;-75
2023/09/08 10:17:00;;;;;;;0.30;0.20;;;;;;;34.50;100.00;101669.50;10376295;28;20073;-76
2023/09/08 10:22:11;;;;;;;0.57;0.55;;;;;;;32.52;100.00;101672.09;10402610;28;20051;-75
2023/09/08 10:27:14;;;;;;;1.00;0.57;;;;;;;33.45;100.00;101656.22;10400614;28;20096;-76
2023/09/08 10:32:18;;;;;;;4.03;0.85;;;;;;;34.34;100.00;101659.75;10402298;28;20566;-75
2023/09/08 10:37:25;;;;;;;0.17;0.08;;;;;;;35.03;100.00;101657.16;10403316;28;20038;-75
2023/09/08 10:42:28;;;;;;;0.45;0.35;;;;;;;33.69;100.00;101653.03;10420190;28;20104;-75
2023/09/08 10:47:36;;;;;;;0.88;0.40;;;;;;;34.50;100.00;101654.31;10429683;28;20045;-75
2023/09/08 10:52:38;;;;;;;0.10;0.10;;;;;;;35.13;100.00;101645.81;10406454;28;20480;-76
2023/09/08 10:57:45;;;;;;;0.80;0.80;;;;;;;35.14;100.00;101648.41;10386062;28;20485;-75
2023/09/08 11:02:54;;;;;;;3.33;1.07;;;;;;;34.85;100.00;101650.31;10427131;28;20147;-75
2023/09/08 11:07:56;;;;;;;1.10;0.50;;;;;;;35.00;100.00;101643.97;10410396;28;20291;-75
2023/09/08 11:12:59;;;;;;;0.03;0.03;;;;;;;36.24;100.00;101648.94;10413316;28;20041;-74
2023/09/08 11:18:05;;;;;;;0.95;0.43;;;;;;;35.38;100.00;101642.34;10423292;28;20901;-75
2023/09/08 11:23:07;;;;;;;0.20;0.15;;;;;;;35.87;100.00;101641.66;10430862;28;20091;-75
2023/09/08 11:28:09;;;;;;;0.52;0.43;;;;;;;35.55;100.00;101643.91;10397321;28;20038;-74
2023/09/08 11:33:18;;;;;;;0.60;0.25;;;;;;;35.91;100.00;101636.97;10413965;28;20064;-75
2023/09/08 11:38:28;;;;;;;0.35;0.20;;;;;;;35.52;100.00;101636.06;10387264;28;20045;-76
2023/09/08 11:43:32;;;;;;;0.13;0.13;;;;;;;34.99;100.00;101634.22;10419642;28;20077;-75
2023/09/08 11:48:35;;;;;;;0.30;0.20;;;;;;;34.97;100.00;101625.41;10400669;28;20469;-74
2023/09/08 11:53:38;;;;;;;0.35;0.28;;;;;;;34.39;100.00;101641.63;10415341;28;20092;-74
2023/09/08 11:58:41;;;;;;;1.88;0.30;;;;;;;34.12;100.00;101645.06;10427601;28;20053;-75
2023/09/08 12:03:53;;;;;;;1.98;0.32;;;;;;;35.45;100.00;101640.97;10399847;28;20167;-75
2023/09/08 12:09:05;;;;;;;0.30;0.13;;;;;;;34.60;100.00;101636.72;10419645;28;20079;-75
2023/09/08 12:14:10;;;;;;;0.20;0.20;;;;;;;34.73;100.00;101633.22;10404821;28;20567;-75
2023/09/08 12:19:30;;;;;;;3.20;0.90;;;;;;;34.19;100.00;101633.97;10403581;28;20590;-75
2023/09/08 12:24:56;;;;;;;0.10;0.10;;;;;;;35.52;100.00;101625.34;10396490;28;20135;-75
2023/09/08 12:30:04;;;;;;;0.22;0.20;;;;;;;35.50;100.00;101627.28;10416770;28;20072;-74
2023/09/08 12:35:06;;;;;;;0.38;0.38;;;;;;;34.48;100.00;101624.13;10417679;28;20037;-75
2023/09/08 12:40:08;;;;;;;3.38;0.30;;;;;;;34.13;100.00;101620.06;10393910;28;20448;-74
2023/09/08 12:45:10;;;;;;;0.57;0.47;;;;;;;34.32;100.00;101614.41;10400493;28;20025;-75
2023/09/08 12:50:13;;;;;;;0.30;0.20;;;;;;;34.35;100.00;101624.03;10394740;28;20057;-75
2023/09/08 12:55:15;;;;;;;1.65;0.55;;;;;;;36.07;100.00;101619.81;10397950;28;20485;-75
2023/09/08 13:00:16;;;;;;;1.02;0.63;;;;;;;35.20;100.00;101610.50;10396635;28;20385;-75
2023/09/08 13:05:18;;;;;;;0.65;0.63;;;;;;;35.62;100.00;101602.31;10416687;28;20045;-74
2023/09/08 13:10:20;;;;;;;0.30;0.20;;;;;;;35.18;100.00;101599.03;10420906;28;20377;-75
2023/09/08 13:15:23;;;;;;;0.45;0.32;;;;;;;35.04;100.00;101594.59;10402088;28;20409;-75
2023/09/08 13:20:24;;;;;;;0.10;0.10;;;;;;;35.37;100.00;101601.31;10401909;28;20048;-75
2023/09/08 13:25:26;;;;;;;0.03;0.03;;;;;;;35.29;100.00;101592.09;10381030;28;20038;-76
2023/09/08 13:30:28;;;;;;;1.13;0.22;;;;;;;35.31;100.00;101593.69;10405738;28;20046;-76
2023/09/08 13:35:29;;;;;;;0.25;0.10;;;;;;;34.66;100.00;101589.97;10393120;28;20408;-75
2023/09/08 13:40:31;;;;;;;0.95;0.30;;;;;;;34.67;100.00;101586.31;10423872;28;20041;-75
2023/09/08 13:45:33;;;;;;;0.22;0.10;;;;;;;34.19;100.00;101585.84;10423145;28;20407;-75
2023/09/08 13:50:37;;;;;;;2.20;0.43;;;;;;;34.45;100.00;101586.88;10395106;28;20504;-75
2023/09/08 13:55:41;;;;;;;0.90;0.30;;;;;;;34.58;100.00;101581.59;10406048;28;20042;-75
2023/09/08 14:00:45;;;;;;;0.32;0.30;;;;;;;35.31;100.00;101574.06;10405174;28;20128;-75
2023/09/08 14:05:52;;;;;;;0.10;0.10;;;;;;;35.65;100.00;101577.13;10386945;28;20048;-75
2023/09/08 14:10:56;;;;;;;0.00;0.00;;;;;;;34.65;100.00;101582.91;10395362;28;20054;-75
2023/09/08 14:16:00;;;;;;;0.10;0.10;;;;;;;35.78;100.00;101574.44;10396338;28;20046;-75
2023/09/08 14:21:04;;;;;;;0.17;0.15;;;;;;;35.68;100.00;101567.06;10398773;28;20057;-75
2023/09/08 14:26:05;;;;;;;0.20;0.17;;;;;;;34.43;100.00;101562.91;10402698;28;20061;-75
2023/09/08 14:31:07;;;;;;;0.17;0.17;;;;;;;35.07;100.00;101569.47;10425598;28;20049;-74
2023/09/08 14:36:09;;;;;;;0.32;0.17;;;;;;;35.68;100.00;101559.00;10398639;28;20044;-75
2023/09/08 14:41:10;;;;;;;0.25;0.25;;;;;;;35.58;100.00;101565.97;10396420;28;20054;-75
2023/09/08 14:46:12;;;;;;;1.33;0.40;;;;;;;34.33;100.00;101562.59;10403614;28;20045;-74
2023/09/08 14:51:15;;;;;;;0.30;0.10;;;;;;;34.72;100.00;101557.47;10389419;28;20074;-74
2023/09/08 14:56:17;;;;;;;0.38;0.28;;;;;;;34.51;100.00;101553.53;10393991;28;20054;-75
2023/09/08 15:01:19;;;;;;;0.08;0.05;;;;;;;34.57;100.00;101553.13;10429265;28;20050;-75
2023/09/08 15:06:21;;;;;;;0.32;0.25;;;;;;;34.95;100.00;101557.75;10373654;28;20412;-75
2023/09/08 15:11:23;;;;;;;0.10;0.10;;;;;;;34.76;100.00;101558.94;10419409;28;20851;-75
2023/09/08 15:16:24;;;;;;;0.45;0.30;;;;;;;35.31;100.00;101548.16;10415540;28;20045;-74
2023/09/08 15:21:29;;;;;;;0.63;0.40;;;;;;;35.74;100.00;101560.41;10422650;28;20102;-75
2023/09/08 15:26:31;;;;;;;0.30;0.30;;;;;;;35.28;100.00;101553.72;10432560;28;20042;-75
2023/09/08 15:31:33;;;;;;;0.30;0.30;;;;;;;35.23;100.00;101547.84;10390199;28;20053;-75
2023/09/08 15:36:34;;;;;;;0.32;0.30;;;;;;;34.25;100.00;101537.31;10401978;28;20489;-75
2023/09/08 15:41:36;;;;;;;0.10;0.10;;;;;;;34.67;100.00;101538.16;10428921;28;20044;-75
2023/09/08 15:46:38;;;;;;;0.77;0.40;;;;;;;34.91;100.00;101532.16;10413976;28;20072;-75
2023/09/08 15:51:40;;;;;;;0.63;0.25;;;;;;;34.70;100.00;101540.63;10403226;28;20042;-75
2023/09/08 15:56:42;;;;;;;1.85;0.20;;;;;;;34.93;100.00;101539.09;10406849;28;20037;-74
2023/09/08 16:01:47;;;;;;;0.10;0.10;;;;;;;34.52;100.00;101536.50;10407982;28;20107;-75
2023/09/08 16:06:49;;;;;;;0.00;0.00;;;;;;;34.58;100.00;101525.41;10405150;28;20088;-74
2023/09/08 16:11:51;;;;;;;0.30;0.30;;;;;;;34.71;100.00;101534.31;10409509;28;20048;-75
2023/09/08 16:16:53;;;;;;;0.40;0.30;;;;;;;33.96;100.00;101519.50;10414762;28;20049;-75
2023/09/08 16:21:54;;;;;;;0.20;0.20;;;;;;;34.62;100.00;101527.78;10405485;28;20885;-75
2023/09/08 16:26:58;;;;;;;0.03;0.03;;;;;;;35.53;100.00;101542.19;10400763;28;20049;-75
2023/09/08 16:32:02;;;;;;;0.10;0.10;;;;;;;34.52;100.00;101524.00;10386931;28;20051;-74
2023/09/08 16:37:04;;;;;;;0.57;0.28;;;;;;;35.34;100.00;101545.25;10410311;28;20065;-74
2023/09/08 16:42:06;;;;;;;0.28;0.28;;;;;;;34.68;100.00;101529.16;10400221;28;20562;-75
2023/09/08 16:47:11;;;;;;;0.00;0.00;;;;;;;34.67;100.00;101532.78;10401951;28;20050;-75
2023/09/08 16:52:13;;;;;;;0.10;0.10;;;;;;;34.63;100.00;101536.66;10431756;28;20426;-75
2023/09/08 16:57:15;;;;;;;0.00;0.00;;;;;;;34.42;100.00;101536.25;10384304;28;20045;-76
2023/09/08 17:02:17;;;;;;;0.32;0.20;;;;;;;34.41;100.00;101531.84;10407796;28;20041;-74
2023/09/08 17:07:19;;;;;;;0.13;0.13;;;;;;;34.40;100.00;101525.66;10411193;28;20064;-74
2023/09/08 17:12:21;;;;;;;0.20;0.20;;;;;;;34.10;100.00;101526.66;10416919;28;20485;-75
2023/09/08 17:17:23;;;;;;;0.40;0.10;;;;;;;33.67;100.00;101537.38;10406939;28;20409;-75
2023/09/08 17:22:24;;;;;;;1.10;0.47;;;;;;;33.17;100.00;101535.00;10355426;28;20421;-75
2023/09/08 17:27:27;;;;;;;0.03;0.03;;;;;;;32.76;100.00;101532.94;10378353;28;20485;-75
2023/09/08 17:32:28;;;;;;;0.00;0.00;;;;;;;32.63;100.00;101529.28;10379669;28;20041;-76
2023/09/08 17:37:30;;;;;;;0.10;0.10;;;;;;;32.52;100.00;101528.06;10370325;28;20046;-75
2023/09/08 17:42:32;;;;;;;0.10;0.10;;;;;;;31.82;100.00;101539.03;10419628;28;20060;-74
2023/09/08 17:47:33;;;;;;;0.10;0.10;;;;;;;31.45;100.00;101535.66;10412730;28;20052;-75
2023/09/08 17:52:35;;;;;;;0.68;0.13;;;;;;;31.05;100.00;101535.00;10396509;28;20050;-74
2023/09/08 17:57:37;;;;;;;0.20;0.10;;;;;;;30.34;100.00;101536.63;10396483;28;20089;-75
2023/09/08 18:02:39;;;;;;;0.10;0.10;;;;;;;29.88;100.00;101534.31;10413088;28;20045;-75
2023/09/08 18:07:42;;;;;;;0.60;0.30;;;;;;;29.54;100.00;101536.69;10387637;28;20040;-75
2023/09/08 18:12:44;;;;;;;0.20;0.13;;;;;;;29.52;100.00;101543.00;10401140;28;20060;-75
2023/09/08 18:17:47;;;;;;;0.25;0.13;;;;;;;29.21;100.00;101544.28;10386932;28;20132;-74
2023/09/08 18:22:51;;;;;;;0.25;0.25;;;;;;;28.91;100.00;101549.97;10381368;28;20049;-75
2023/09/08 18:27:53;;;;;;;0.13;0.10;;;;;;;29.02;100.00;101544.22;10388954;28;20061;-76
2023/09/08 18:32:54;;;;;;;0.00;0.00;;;;;;;29.06;100.00;101551.97;10395913;28;20064;-74
2023/09/08 18:37:57;;;;;;;0.52;0.20;;;;;;;28.59;100.00;101552.09;10390101;28;20045;-75
2023/09/08 18:42:58;;;;;;;0.00;0.00;;;;;;;28.58;100.00;101555.66;10389210;28;20045;-75
2023/09/08 18:48:00;;;;;;;0.17;0.10;;;;;;;28.29;100.00;101565.59;10393324;28;20401;-74
2023/09/08 18:53:02;;;;;;;0.65;0.13;;;;;;;28.06;100.00;101563.84;10419498;28;20105;-74
2023/09/08 18:58:05;;;;;;;0.20;0.20;;;;;;;27.81;100.00;101565.56;10405368;28;20041;-74
2023/09/08 19:03:06;;;;;;;0.17;0.17;;;;;;;28.01;100.00;101569.28;10424808;28;20056;-74
2023/09/08 19:08:08;;;;;;;0.20;0.20;;;;;;;27.72;100.00;101565.91;10418671;28;20048;-75
2023/09/08 19:13:10;;;;;;;0.22;0.10;;;;;;;27.74;100.00;101569.34;10432852;28;20405;-75
2023/09/08 19:18:12;;;;;;;0.00;0.00;;;;;;;27.61;100.00;101573.34;10419725;28;20408;-73
2023/09/08 19:23:13;;;;;;;0.20;0.20;;;;;;;27.64;100.00;101574.09;10359138;28;20489;-75
2023/09/08 19:28:15;;;;;;;0.80;0.25;;;;;;;27.00;100.00;101570.06;10405783;28;20853;-74
2023/09/08 19:33:17;;;;;;;0.10;0.10;;;;;;;27.16;100.00;101573.06;10380329;28;20046;-74
2023/09/08 19:38:19;;;;;;;0.20;0.20;;;;;;;27.23;100.00;101564.00;10394327;28;20060;-74
2023/09/08 19:43:20;;;;;;;0.20;0.20;;;;;;;26.96;100.00;101572.84;10420307;28;20049;-74
2023/09/08 19:48:22;;;;;;;0.10;0.10;;;;;;;26.98;100.00;101563.97;10383928;28;20037;-74
2023/09/08 19:53:24;;;;;;;0.10;0.10;;;;;;;26.68;100.00;101560.50;10425545;28;20432;-74
2023/09/08 19:58:28;;;;;;;0.00;0.00;;;;;;;27.17;100.00;101564.22;10400931;28;20045;-73
2023/09/08 20:03:30;;;;;;;0.22;0.10;;;;;;;26.89;100.00;101562.50;10418115;28;20041;-74
2023/09/08 20:08:31;;;;;;;0.03;0.03;;;;;;;26.96;100.00;101562.28;10396691;28;20404;-74
2023/09/08 20:13:33;;;;;;;0.00;0.00;;;;;;;26.82;100.00;101555.66;10425961;28;20049;-74
2023/09/08 20:18:35;;;;;;;0.00;0.00;;;;;;;26.11;100.00;101560.41;10399178;28;20052;-75
2023/09/08 20:23:37;;;;;;;0.40;0.20;;;;;;;26.44;100.00;101558.53;10401445;28;20051;-74
2023/09/08 20:28:39;;;;;;;0.08;0.08;;;;;;;26.66;100.00;101557.88;10426625;28;20081;-74
2023/09/08 20:33:41;;;;;;;0.22;0.13;;;;;;;26.55;100.00;101554.72;10428265;28;20041;-74
2023/09/08 20:38:43;;;;;;;0.20;0.20;;;;;;;25.85;100.00;101556.72;10395400;28;20147;-74
2023/09/08 20:43:46;;;;;;;0.10;0.10;;;;;;;26.24;100.00;101548.59;10390699;28;20069;-74
2023/09/08 20:48:48;;;;;;;0.30;0.20;;;;;;;25.39;100.00;101561.47;10416138;28;20099;-74
2023/09/08 20:53:49;;;;;;;0.00;0.00;;;;;;;25.82;100.00;101559.44;10401506;28;20046;-75
2023/09/08 20:58:51;;;;;;;0.30;0.20;;;;;;;25.80;100.00;101548.94;10411167;28;20037;-74
2023/09/08 21:03:52;;;;;;;0.90;0.17;;;;;;;25.45;100.00;101544.59;10403021;28;20084;-75
2023/09/08 21:08:54;;;;;;;0.00;0.00;;;;;;;25.34;100.00;101540.47;10396555;28;20073;-74
2023/09/08 21:13:56;;;;;;;0.17;0.00;;;;;;;25.88;100.00;101538.16;10404520;28;20053;-74
2023/09/08 21:18:58;;;;;;;0.32;0.20;;;;;;;25.75;100.00;101537.66;10400522;28;20046;-74
2023/09/08 21:23:59;;;;;;;0.10;0.10;;;;;;;25.71;100.00;101540.41;10412938;28;20048;-74
2023/09/08 21:29:01;;;;;;;0.40;0.30;;;;;;;25.85;100.00;101535.63;10419773;28;20075;-74
2023/09/08 21:34:03;;;;;;;0.15;0.10;;;;;;;25.48;100.00;101540.13;10390555;28;20045;-74
2023/09/08 21:39:04;;;;;;;0.00;0.00;;;;;;;25.39;100.00;101535.09;10403346;28;20041;-74
2023/09/08 21:44:06;;;;;;;0.00;0.00;;;;;;;25.32;100.00;101536.09;10426910;28;20053;-74
2023/09/08 21:49:08;;;;;;;0.00;0.00;;;;;;;25.21;100.00;101536.38;10398036;28;20053;-75
2023/09/08 21:54:10;;;;;;;0.10;0.00;;;;;;;24.98;100.00;101537.81;10384798;28;20162;-74
2023/09/08 21:59:12;;;;;;;0.00;0.00;;;;;;;24.92;100.00;101543.25;10412194;28;20045;-73
2023/09/08 22:04:14;;;;;;;0.47;0.30;;;;;;;24.73;100.00;101539.31;10407427;28;20053;-74
2023/09/08 22:09:17;;;;;;;0.00;0.00;;;;;;;24.70;100.00;101533.22;10394252;28;20149;-74
2023/09/08 22:14:19;;;;;;;0.20;0.17;;;;;;;24.56;100.00;101540.53;10407991;28;20049;-74
2023/09/08 22:19:21;;;;;;;0.10;0.10;;;;;;;24.85;100.00;101541.66;10397497;28;20037;-74
2023/09/08 22:24:22;;;;;;;0.00;0.00;;;;;;;24.60;100.00;101539.59;10403152;28;20080;-75
2023/09/08 22:29:24;;;;;;;0.28;0.20;;;;;;;24.65;100.00;101542.09;10426600;28;20045;-75
2023/09/08 22:34:26;;;;;;;0.00;0.00;;;;;;;24.63;100.00;101539.50;10410585;28;20049;-74
2023/09/08 22:39:29;;;;;;;0.20;0.20;;;;;;;24.67;100.00;101535.94;10418511;28;20065;-74
2023/09/08 22:44:30;;;;;;;0.15;0.13;;;;;;;24.74;100.00;101538.44;10405224;28;20045;-75
2023/09/08 22:49:33;;;;;;;0.00;0.00;;;;;;;24.64;100.00;101533.34;10413145;28;20072;-75
2023/09/08 22:54:34;;;;;;;0.25;0.17;;;;;;;24.52;100.00;101531.84;10418401;28;20131;-74